sensor_id;sensor_type;location;lat;lon;timestamp;P1;durP1;ratioP1;P2;durP2;ratioP2
70715;SDS011;59053;50.832;12.882;2022-07-01T00:01:21;16.27;;;10.20;;
70715;SDS011;59053;50.832;12.882;2022-07-01T00:03:46;15.53;;;9.90;;
70715;SDS011;59053;50.832;12.882;2022-07-01T00:12:22;18.60;;;10.70;;
70715;SDS011;59053;50.832;12.882;2022-07-01T00:14:47;15.90;;;10.40;;
70715;SDS011;59053;50.832;12.882;2022-07-01T00:20:22;19.13;;;11.15;;
70715;SDS011;59053;50.832;12.882;2022-07-01T00:22:56;20.10;;;10.83;;
70715;SDS011;59053;50.832;12.882;2022-07-01T00:25:22;15.80;;;10.30;;
70715;SDS011;59053;50.832;12.882;2022-07-01T00:27:56;17.60;;;10.50;;
70715;SDS011;59053;50.832;12.882;2022-07-01T00:36:22;17.02;;;10.45;;
70715;SDS011;59053;50.832;12.882;2022-07-01T00:38:48;16.90;;;9.67;;
70715;SDS011;59053;50.832;12.882;2022-07-01T00:41:13;16.17;;;9.53;;
70715;SDS011;59053;50.832;12.882;2022-07-01T00:43:39;15.03;;;10.07;;
70715;SDS011;59053;50.832;12.882;2022-07-01T00:46:05;16.42;;;10.30;;
70715;SDS011;59053;50.832;12.882;2022-07-01T00:48:31;15.43;;;9.93;;
70715;SDS011;59053;50.832;12.882;2022-07-01T00:50:57;18.37;;;10.33;;
70715;SDS011;59053;50.832;12.882;2022-07-01T00:53:23;15.65;;;10.77;;
70715;SDS011;59053;50.832;12.882;2022-07-01T00:55:48;17.13;;;10.73;;
70715;SDS011;59053;50.832;12.882;2022-07-01T00:58:14;19.75;;;11.35;;
70715;SDS011;59053;50.832;12.882;2022-07-01T01:00:40;22.20;;;11.37;;
70715;SDS011;59053;50.832;12.882;2022-07-01T01:03:06;19.23;;;11.30;;
70715;SDS011;59053;50.832;12.882;2022-07-01T01:05:33;17.02;;;11.30;;
70715;SDS011;59053;50.832;12.882;2022-07-01T01:07:58;18.13;;;11.80;;
70715;SDS011;59053;50.832;12.882;2022-07-01T01:10:24;20.50;;;11.50;;
70715;SDS011;59053;50.832;12.882;2022-07-01T01:16:35;22.15;;;11.95;;
70715;SDS011;59053;50.832;12.882;2022-07-01T01:19:05;18.97;;;11.47;;
70715;SDS011;59053;50.832;12.882;2022-07-01T01:21:31;17.40;;;11.30;;
70715;SDS011;59053;50.832;12.882;2022-07-01T01:23:57;17.77;;;11.30;;
70715;SDS011;59053;50.832;12.882;2022-07-01T01:26:24;18.63;;;11.75;;
70715;SDS011;59053;50.832;12.882;2022-07-01T01:28:50;19.85;;;12.38;;
70715;SDS011;59053;50.832;12.882;2022-07-01T01:31:16;20.13;;;12.27;;
70715;SDS011;59053;50.832;12.882;2022-07-01T01:33:42;18.50;;;11.35;;
70715;SDS011;59053;50.832;12.882;2022-07-01T01:36:08;19.30;;;11.77;;
70715;SDS011;59053;50.832;12.882;2022-07-01T01:38:34;19.25;;;11.65;;
70715;SDS011;59053;50.832;12.882;2022-07-01T01:41:00;21.07;;;12.13;;
70715;SDS011;59053;50.832;12.882;2022-07-01T01:43:26;18.50;;;10.98;;
70715;SDS011;59053;50.832;12.882;2022-07-01T01:45:51;18.80;;;11.43;;
70715;SDS011;59053;50.832;12.882;2022-07-01T01:48:17;17.00;;;10.70;;
70715;SDS011;59053;50.832;12.882;2022-07-01T01:50:42;19.33;;;11.23;;
70715;SDS011;59053;50.832;12.882;2022-07-01T01:53:07;18.77;;;11.47;;
70715;SDS011;59053;50.832;12.882;2022-07-01T01:55:33;16.97;;;10.60;;
70715;SDS011;59053;50.832;12.882;2022-07-01T01:57:58;17.50;;;10.67;;
70715;SDS011;59053;50.832;12.882;2022-07-01T02:00:23;17.20;;;10.90;;
70715;SDS011;59053;50.832;12.882;2022-07-01T02:02:49;18.20;;;11.47;;
70715;SDS011;59053;50.832;12.882;2022-07-01T02:08:08;16.83;;;10.25;;
70715;SDS011;59053;50.832;12.882;2022-07-01T02:10:33;16.23;;;10.82;;
70715;SDS011;59053;50.832;12.882;2022-07-01T02:12:58;16.23;;;10.60;;
70715;SDS011;59053;50.832;12.882;2022-07-01T02:15:24;16.97;;;10.43;;
70715;SDS011;59053;50.832;12.882;2022-07-01T02:17:49;16.33;;;10.43;;
70715;SDS011;59053;50.832;12.882;2022-07-01T02:20:16;17.13;;;11.27;;
70715;SDS011;59053;50.832;12.882;2022-07-01T02:22:41;19.50;;;10.80;;
70715;SDS011;59053;50.832;12.882;2022-07-01T02:25:07;16.60;;;10.67;;
70715;SDS011;59053;50.832;12.882;2022-07-01T02:27:33;18.05;;;10.55;;
70715;SDS011;59053;50.832;12.882;2022-07-01T02:29:59;19.83;;;11.40;;
70715;SDS011;59053;50.832;12.882;2022-07-01T02:32:24;16.88;;;10.30;;
70715;SDS011;59053;50.832;12.882;2022-07-01T02:34:49;17.80;;;11.17;;
70715;SDS011;59053;50.832;12.882;2022-07-01T02:37:16;18.10;;;11.43;;
70715;SDS011;59053;50.832;12.882;2022-07-01T02:39:41;16.20;;;11.03;;
70715;SDS011;59053;50.832;12.882;2022-07-01T02:42:07;18.90;;;10.37;;
70715;SDS011;59053;50.832;12.882;2022-07-01T02:44:51;16.10;;;10.60;;
70715;SDS011;59053;50.832;12.882;2022-07-01T02:47:16;16.43;;;10.80;;
70715;SDS011;59053;50.832;12.882;2022-07-01T02:49:41;17.30;;;10.98;;
70715;SDS011;59053;50.832;12.882;2022-07-01T02:52:07;21.27;;;11.43;;
70715;SDS011;59053;50.832;12.882;2022-07-01T02:54:32;17.20;;;11.03;;
70715;SDS011;59053;50.832;12.882;2022-07-01T03:00:25;17.48;;;11.55;;
70715;SDS011;59053;50.832;12.882;2022-07-01T03:02:50;18.10;;;11.27;;
70715;SDS011;59053;50.832;12.882;2022-07-01T03:05:16;20.53;;;11.93;;
70715;SDS011;59053;50.832;12.882;2022-07-01T03:07:41;17.20;;;11.18;;
70715;SDS011;59053;50.832;12.882;2022-07-01T03:10:07;20.00;;;11.90;;
70715;SDS011;59053;50.832;12.882;2022-07-01T03:12:33;22.75;;;13.38;;
70715;SDS011;59053;50.832;12.882;2022-07-01T03:17:31;17.00;;;10.98;;
70715;SDS011;59053;50.832;12.882;2022-07-01T03:19:58;18.87;;;11.10;;
70715;SDS011;59053;50.832;12.882;2022-07-01T03:22:25;18.23;;;10.98;;
70715;SDS011;59053;50.832;12.882;2022-07-01T03:24:52;17.85;;;10.90;;
70715;SDS011;59053;50.832;12.882;2022-07-01T03:27:18;19.87;;;11.93;;
70715;SDS011;59053;50.832;12.882;2022-07-01T03:29:43;17.05;;;10.57;;
70715;SDS011;59053;50.832;12.882;2022-07-01T03:32:10;20.75;;;11.70;;
70715;SDS011;59053;50.832;12.882;2022-07-01T03:34:40;16.80;;;10.83;;
70715;SDS011;59053;50.832;12.882;2022-07-01T03:37:07;14.57;;;9.52;;
70715;SDS011;59053;50.832;12.882;2022-07-01T03:39:33;14.00;;;9.10;;
70715;SDS011;59053;50.832;12.882;2022-07-01T03:41:59;12.48;;;8.13;;
70715;SDS011;59053;50.832;12.882;2022-07-01T03:44:24;13.80;;;8.70;;
70715;SDS011;59053;50.832;12.882;2022-07-01T03:46:50;14.10;;;8.27;;
70715;SDS011;59053;50.832;12.882;2022-07-01T03:49:16;13.13;;;8.10;;
70715;SDS011;59053;50.832;12.882;2022-07-01T03:51:42;12.00;;;7.68;;
70715;SDS011;59053;50.832;12.882;2022-07-01T03:54:07;12.03;;;7.17;;
70715;SDS011;59053;50.832;12.882;2022-07-01T03:56:51;10.45;;;7.50;;
70715;SDS011;59053;50.832;12.882;2022-07-01T03:59:17;13.77;;;7.45;;
70715;SDS011;59053;50.832;12.882;2022-07-01T04:04:58;12.38;;;7.57;;
70715;SDS011;59053;50.832;12.882;2022-07-01T04:07:24;13.30;;;7.60;;
70715;SDS011;59053;50.832;12.882;2022-07-01T04:19:52;10.05;;;6.70;;
70715;SDS011;59053;50.832;12.882;2022-07-01T04:23:06;10.50;;;7.03;;
70715;SDS011;59053;50.832;12.882;2022-07-01T04:25:52;10.40;;;6.50;;
70715;SDS011;59053;50.832;12.882;2022-07-01T04:28:17;11.93;;;5.90;;
70715;SDS011;59053;50.832;12.882;2022-07-01T04:30:43;10.70;;;5.90;;
70715;SDS011;59053;50.832;12.882;2022-07-01T04:36:18;10.18;;;5.55;;
70715;SDS011;59053;50.832;12.882;2022-07-01T04:38:52;9.27;;;5.83;;
70715;SDS011;59053;50.832;12.882;2022-07-01T04:41:17;12.38;;;5.95;;
70715;SDS011;59053;50.832;12.882;2022-07-01T04:44:01;13.45;;;6.30;;
70715;SDS011;59053;50.832;12.882;2022-07-01T04:46:45;9.50;;;6.20;;
70715;SDS011;59053;50.832;12.882;2022-07-01T04:49:11;9.25;;;6.20;;
70715;SDS011;59053;50.832;12.882;2022-07-01T04:51:36;11.30;;;6.07;;
70715;SDS011;59053;50.832;12.882;2022-07-01T04:54:02;8.95;;;6.00;;
70715;SDS011;59053;50.832;12.882;2022-07-01T04:56:28;9.40;;;5.70;;
70715;SDS011;59053;50.832;12.882;2022-07-01T04:58:54;10.30;;;5.77;;
70715;SDS011;59053;50.832;12.882;2022-07-01T05:01:20;8.55;;;5.90;;
70715;SDS011;59053;50.832;12.882;2022-07-01T05:03:46;8.43;;;6.00;;
70715;SDS011;59053;50.832;12.882;2022-07-01T05:06:11;11.40;;;6.50;;
70715;SDS011;59053;50.832;12.882;2022-07-01T05:08:36;12.00;;;7.40;;
70715;SDS011;59053;50.832;12.882;2022-07-01T05:11:02;9.57;;;6.70;;
70715;SDS011;59053;50.832;12.882;2022-07-01T05:13:27;9.67;;;6.57;;
70715;SDS011;59053;50.832;12.882;2022-07-01T05:15:53;12.87;;;7.03;;
70715;SDS011;59053;50.832;12.882;2022-07-01T05:18:18;13.40;;;7.10;;
70715;SDS011;59053;50.832;12.882;2022-07-01T05:21:02;10.73;;;6.88;;
70715;SDS011;59053;50.832;12.882;2022-07-01T05:23:46;11.27;;;6.90;;
70715;SDS011;59053;50.832;12.882;2022-07-01T05:26:13;11.38;;;6.97;;
70715;SDS011;59053;50.832;12.882;2022-07-01T05:28:42;9.75;;;6.82;;
70715;SDS011;59053;50.832;12.882;2022-07-01T05:31:08;9.77;;;6.27;;
70715;SDS011;59053;50.832;12.882;2022-07-01T05:33:34;10.93;;;6.38;;
70715;SDS011;59053;50.832;12.882;2022-07-01T05:36:02;8.97;;;6.10;;
70715;SDS011;59053;50.832;12.882;2022-07-01T05:38:28;9.68;;;6.40;;
70715;SDS011;59053;50.832;12.882;2022-07-01T05:40:53;9.87;;;6.10;;
70715;SDS011;59053;50.832;12.882;2022-07-01T05:43:20;10.85;;;6.03;;
70715;SDS011;59053;50.832;12.882;2022-07-01T05:45:45;13.07;;;6.43;;
70715;SDS011;59053;50.832;12.882;2022-07-01T05:48:11;10.27;;;6.95;;
70715;SDS011;59053;50.832;12.882;2022-07-01T05:50:36;11.13;;;6.87;;
70715;SDS011;59053;50.832;12.882;2022-07-01T05:53:02;9.40;;;7.13;;
70715;SDS011;59053;50.832;12.882;2022-07-01T05:55:28;9.23;;;6.30;;
70715;SDS011;59053;50.832;12.882;2022-07-01T05:57:53;12.20;;;7.37;;
70715;SDS011;59053;50.832;12.882;2022-07-01T06:00:30;9.77;;;7.20;;
70715;SDS011;59053;50.832;12.882;2022-07-01T06:02:58;9.50;;;6.57;;
70715;SDS011;59053;50.832;12.882;2022-07-01T06:05:23;9.50;;;6.65;;
70715;SDS011;59053;50.832;12.882;2022-07-01T06:07:49;12.33;;;7.30;;
70715;SDS011;59053;50.832;12.882;2022-07-01T06:10:14;10.68;;;6.72;;
70715;SDS011;59053;50.832;12.882;2022-07-01T06:12:40;9.50;;;7.20;;
70715;SDS011;59053;50.832;12.882;2022-07-01T06:15:06;11.95;;;7.00;;
70715;SDS011;59053;50.832;12.882;2022-07-01T06:17:33;9.17;;;6.80;;
70715;SDS011;59053;50.832;12.882;2022-07-01T06:19:59;10.60;;;6.72;;
70715;SDS011;59053;50.832;12.882;2022-07-01T06:22:24;9.83;;;7.73;;
70715;SDS011;59053;50.832;12.882;2022-07-01T06:24:50;14.60;;;7.88;;
70715;SDS011;59053;50.832;12.882;2022-07-01T06:27:15;10.67;;;7.37;;
70715;SDS011;59053;50.832;12.882;2022-07-01T06:29:44;9.83;;;7.23;;
70715;SDS011;59053;50.832;12.882;2022-07-01T06:32:10;11.05;;;7.60;;
70715;SDS011;59053;50.832;12.882;2022-07-01T06:34:36;13.43;;;8.20;;
70715;SDS011;59053;50.832;12.882;2022-07-01T06:37:02;13.57;;;8.13;;
70715;SDS011;59053;50.832;12.882;2022-07-01T06:39:28;14.15;;;8.43;;
70715;SDS011;59053;50.832;12.882;2022-07-01T06:41:54;12.00;;;8.27;;
70715;SDS011;59053;50.832;12.882;2022-07-01T06:44:20;12.63;;;9.10;;
70715;SDS011;59053;50.832;12.882;2022-07-01T06:46:46;13.37;;;8.53;;
70715;SDS011;59053;50.832;12.882;2022-07-01T06:49:11;10.67;;;8.63;;
70715;SDS011;59053;50.832;12.882;2022-07-01T06:51:36;14.47;;;9.43;;
70715;SDS011;59053;50.832;12.882;2022-07-01T06:54:02;13.53;;;9.17;;
70715;SDS011;59053;50.832;12.882;2022-07-01T06:56:28;14.10;;;9.73;;
70715;SDS011;59053;50.832;12.882;2022-07-01T06:58:53;14.45;;;10.15;;
70715;SDS011;59053;50.832;12.882;2022-07-01T07:01:19;13.73;;;10.30;;
70715;SDS011;59053;50.832;12.882;2022-07-01T07:03:45;17.80;;;10.07;;
70715;SDS011;59053;50.832;12.882;2022-07-01T07:06:10;13.30;;;9.90;;
70715;SDS011;59053;50.832;12.882;2022-07-01T07:08:41;16.15;;;9.40;;
70715;SDS011;59053;50.832;12.882;2022-07-01T07:11:07;15.73;;;9.95;;
70715;SDS011;59053;50.832;12.882;2022-07-01T07:13:34;13.38;;;10.05;;
70715;SDS011;59053;50.832;12.882;2022-07-01T07:16:00;14.02;;;9.20;;
70715;SDS011;59053;50.832;12.882;2022-07-01T07:18:25;12.83;;;7.90;;
70715;SDS011;59053;50.832;12.882;2022-07-01T07:20:50;12.40;;;9.10;;
70715;SDS011;59053;50.832;12.882;2022-07-01T07:23:18;16.50;;;9.63;;
70715;SDS011;59053;50.832;12.882;2022-07-01T07:25:44;11.38;;;8.40;;
70715;SDS011;59053;50.832;12.882;2022-07-01T07:28:09;10.90;;;8.63;;
70715;SDS011;59053;50.832;12.882;2022-07-01T07:30:34;11.48;;;8.80;;
70715;SDS011;59053;50.832;12.882;2022-07-01T07:33:00;13.00;;;9.30;;
70715;SDS011;59053;50.832;12.882;2022-07-01T07:35:25;11.53;;;7.13;;
70715;SDS011;59053;50.832;12.882;2022-07-01T07:37:51;13.37;;;10.10;;
70715;SDS011;59053;50.832;12.882;2022-07-01T07:40:16;14.07;;;10.20;;
70715;SDS011;59053;50.832;12.882;2022-07-01T07:42:47;16.40;;;10.03;;
70715;SDS011;59053;50.832;12.882;2022-07-01T07:45:13;15.27;;;9.98;;
70715;SDS011;59053;50.832;12.882;2022-07-01T07:47:46;12.50;;;9.30;;
70715;SDS011;59053;50.832;12.882;2022-07-01T07:50:13;12.85;;;9.38;;
70715;SDS011;59053;50.832;12.882;2022-07-01T07:52:39;11.45;;;8.38;;
70715;SDS011;59053;50.832;12.882;2022-07-01T07:55:05;11.73;;;8.10;;
70715;SDS011;59053;50.832;12.882;2022-07-01T07:57:32;13.05;;;7.85;;
70715;SDS011;59053;50.832;12.882;2022-07-01T07:59:57;13.23;;;9.30;;
70715;SDS011;59053;50.832;12.882;2022-07-01T08:02:23;13.25;;;9.15;;
70715;SDS011;59053;50.832;12.882;2022-07-01T08:04:49;11.27;;;7.77;;
70715;SDS011;59053;50.832;12.882;2022-07-01T08:07:14;13.90;;;8.95;;
70715;SDS011;59053;50.832;12.882;2022-07-01T08:09:40;11.20;;;7.80;;
70715;SDS011;59053;50.832;12.882;2022-07-01T08:12:11;10.63;;;7.22;;
70715;SDS011;59053;50.832;12.882;2022-07-01T08:14:36;13.07;;;8.87;;
70715;SDS011;59053;50.832;12.882;2022-07-01T08:17:03;11.27;;;8.20;;
70715;SDS011;59053;50.832;12.882;2022-07-01T08:19:29;10.90;;;7.83;;
70715;SDS011;59053;50.832;12.882;2022-07-01T08:21:54;10.60;;;8.40;;
70715;SDS011;59053;50.832;12.882;2022-07-01T08:24:19;12.50;;;7.80;;
70715;SDS011;59053;50.832;12.882;2022-07-01T08:26:45;12.70;;;7.90;;
70715;SDS011;59053;50.832;12.882;2022-07-01T08:29:10;11.10;;;7.93;;
70715;SDS011;59053;50.832;12.882;2022-07-01T08:31:36;12.50;;;7.85;;
70715;SDS011;59053;50.832;12.882;2022-07-01T08:34:01;13.87;;;8.70;;
70715;SDS011;59053;50.832;12.882;2022-07-01T08:36:27;13.23;;;8.17;;
70715;SDS011;59053;50.832;12.882;2022-07-01T08:38:52;14.15;;;8.90;;
70715;SDS011;59053;50.832;12.882;2022-07-01T08:41:18;12.43;;;8.93;;
70715;SDS011;59053;50.832;12.882;2022-07-01T08:43:45;13.68;;;9.23;;
70715;SDS011;59053;50.832;12.882;2022-07-01T08:46:13;11.90;;;8.60;;
70715;SDS011;59053;50.832;12.882;2022-07-01T08:48:41;15.27;;;8.63;;
70715;SDS011;59053;50.832;12.882;2022-07-01T08:51:08;13.57;;;8.88;;
70715;SDS011;59053;50.832;12.882;2022-07-01T08:53:34;12.63;;;9.57;;
70715;SDS011;59053;50.832;12.882;2022-07-01T08:56:01;14.77;;;8.75;;
70715;SDS011;59053;50.832;12.882;2022-07-01T08:58:48;14.63;;;9.23;;
70715;SDS011;59053;50.832;12.882;2022-07-01T09:01:21;13.82;;;8.70;;
70715;SDS011;59053;50.832;12.882;2022-07-01T09:03:48;12.85;;;8.85;;
70715;SDS011;59053;50.832;12.882;2022-07-01T09:09:10;14.55;;;9.95;;
70715;SDS011;59053;50.832;12.882;2022-07-01T09:11:44;14.57;;;9.85;;
70715;SDS011;59053;50.832;12.882;2022-07-01T09:14:23;16.42;;;10.55;;
70715;SDS011;59053;50.832;12.882;2022-07-01T09:17:02;18.67;;;10.23;;
70715;SDS011;59053;50.832;12.882;2022-07-01T09:19:31;16.63;;;10.37;;
70715;SDS011;59053;50.832;12.882;2022-07-01T09:21:59;16.08;;;10.88;;
70715;SDS011;59053;50.832;12.882;2022-07-01T09:24:33;16.40;;;10.63;;
70715;SDS011;59053;50.832;12.882;2022-07-01T09:27:02;16.40;;;9.23;;
70715;SDS011;59053;50.832;12.882;2022-07-01T09:29:41;15.40;;;10.45;;
70715;SDS011;59053;50.832;12.882;2022-07-01T09:32:13;16.37;;;9.70;;
70715;SDS011;59053;50.832;12.882;2022-07-01T09:34:42;17.35;;;10.45;;
70715;SDS011;59053;50.832;12.882;2022-07-01T09:37:13;25.30;;;13.35;;
70715;SDS011;59053;50.832;12.882;2022-07-01T09:39:46;21.80;;;12.25;;
70715;SDS011;59053;50.832;12.882;2022-07-01T09:42:13;20.90;;;12.93;;
70715;SDS011;59053;50.832;12.882;2022-07-01T09:44:58;19.60;;;11.97;;
70715;SDS011;59053;50.832;12.882;2022-07-01T09:47:36;20.85;;;12.70;;
70715;SDS011;59053;50.832;12.882;2022-07-01T09:50:04;21.45;;;12.38;;
70715;SDS011;59053;50.832;12.882;2022-07-01T09:52:31;22.48;;;13.75;;
70715;SDS011;59053;50.832;12.882;2022-07-01T09:54:57;21.42;;;11.82;;
70715;SDS011;59053;50.832;12.882;2022-07-01T09:57:22;19.03;;;12.23;;
70715;SDS011;59053;50.832;12.882;2022-07-01T09:59:48;20.23;;;11.67;;
70715;SDS011;59053;50.832;12.882;2022-07-01T10:02:14;17.67;;;10.35;;
70715;SDS011;59053;50.832;12.882;2022-07-01T10:04:46;19.65;;;11.60;;
70715;SDS011;59053;50.832;12.882;2022-07-01T10:10:12;17.75;;;10.95;;
70715;SDS011;59053;50.832;12.882;2022-07-01T10:12:58;17.65;;;10.77;;
70715;SDS011;59053;50.832;12.882;2022-07-01T10:15:24;14.25;;;9.13;;
70715;SDS011;59053;50.832;12.882;2022-07-01T10:17:51;16.73;;;9.93;;
70715;SDS011;59053;50.832;12.882;2022-07-01T10:20:25;15.50;;;9.45;;
70715;SDS011;59053;50.832;12.882;2022-07-01T10:22:59;15.20;;;9.88;;
70715;SDS011;59053;50.832;12.882;2022-07-01T10:25:40;17.20;;;9.98;;
70715;SDS011;59053;50.832;12.882;2022-07-01T10:28:17;15.73;;;10.20;;
70715;SDS011;59053;50.832;12.882;2022-07-01T10:41:26;6.30;;;3.63;;
70715;SDS011;59053;50.832;12.882;2022-07-01T10:43:53;5.27;;;3.23;;
70715;SDS011;59053;50.832;12.882;2022-07-01T10:49:18;7.45;;;3.70;;
70715;SDS011;59053;50.832;12.882;2022-07-01T10:52:11;5.57;;;3.22;;
70715;SDS011;59053;50.832;12.882;2022-07-01T10:59:40;8.53;;;3.70;;
70715;SDS011;59053;50.832;12.882;2022-07-01T11:02:12;7.00;;;3.95;;
70715;SDS011;59053;50.832;12.882;2022-07-01T11:04:37;7.97;;;3.97;;
70715;SDS011;59053;50.832;12.882;2022-07-01T11:07:03;7.32;;;3.55;;
70715;SDS011;59053;50.832;12.882;2022-07-01T11:09:29;8.10;;;3.87;;
70715;SDS011;59053;50.832;12.882;2022-07-01T11:11:54;5.50;;;3.30;;
70715;SDS011;59053;50.832;12.882;2022-07-01T11:14:19;7.57;;;3.30;;
70715;SDS011;59053;50.832;12.882;2022-07-01T11:16:45;4.17;;;2.90;;
70715;SDS011;59053;50.832;12.882;2022-07-01T11:19:10;4.87;;;3.00;;
70715;SDS011;59053;50.832;12.882;2022-07-01T11:21:35;6.00;;;3.50;;
70715;SDS011;59053;50.832;12.882;2022-07-01T11:24:01;4.87;;;2.90;;
70715;SDS011;59053;50.832;12.882;2022-07-01T11:26:26;5.50;;;3.40;;
70715;SDS011;59053;50.832;12.882;2022-07-01T11:28:52;6.20;;;3.67;;
70715;SDS011;59053;50.832;12.882;2022-07-01T11:31:30;23.97;;;5.70;;
70715;SDS011;59053;50.832;12.882;2022-07-01T11:33:56;5.40;;;3.50;;
70715;SDS011;59053;50.832;12.882;2022-07-01T11:36:21;5.53;;;3.50;;
70715;SDS011;59053;50.832;12.882;2022-07-01T11:39:05;6.30;;;3.90;;
70715;SDS011;59053;50.832;12.882;2022-07-01T11:41:52;6.80;;;3.53;;
70715;SDS011;59053;50.832;12.882;2022-07-01T11:44:35;5.85;;;3.63;;
70715;SDS011;59053;50.832;12.882;2022-07-01T11:47:05;5.72;;;3.47;;
70715;SDS011;59053;50.832;12.882;2022-07-01T11:49:46;5.10;;;3.10;;
70715;SDS011;59053;50.832;12.882;2022-07-01T11:52:13;5.75;;;3.45;;
70715;SDS011;59053;50.832;12.882;2022-07-01T11:54:39;5.65;;;3.15;;
70715;SDS011;59053;50.832;12.882;2022-07-01T12:00:07;6.93;;;3.25;;
70715;SDS011;59053;50.832;12.882;2022-07-01T12:02:37;6.53;;;3.33;;
70715;SDS011;59053;50.832;12.882;2022-07-01T12:05:09;7.63;;;3.53;;
70715;SDS011;59053;50.832;12.882;2022-07-01T12:07:34;7.57;;;3.60;;
70715;SDS011;59053;50.832;12.882;2022-07-01T12:10:00;6.33;;;3.20;;
70715;SDS011;59053;50.832;12.882;2022-07-01T12:12:27;6.85;;;3.50;;
70715;SDS011;59053;50.832;12.882;2022-07-01T12:14:57;6.65;;;3.55;;
70715;SDS011;59053;50.832;12.882;2022-07-01T12:17:23;5.97;;;3.63;;
70715;SDS011;59053;50.832;12.882;2022-07-01T12:19:50;7.23;;;3.90;;
70715;SDS011;59053;50.832;12.882;2022-07-01T12:22:17;7.00;;;4.07;;
70715;SDS011;59053;50.832;12.882;2022-07-01T12:24:48;6.50;;;3.60;;
70715;SDS011;59053;50.832;12.882;2022-07-01T12:27:14;5.97;;;3.67;;
70715;SDS011;59053;50.832;12.882;2022-07-01T12:32:05;5.70;;;3.47;;
70715;SDS011;59053;50.832;12.882;2022-07-01T12:34:38;5.28;;;2.95;;
70715;SDS011;59053;50.832;12.882;2022-07-01T12:37:10;7.37;;;3.77;;
70715;SDS011;59053;50.832;12.882;2022-07-01T12:39:46;6.32;;;3.78;;
70715;SDS011;59053;50.832;12.882;2022-07-01T12:42:35;7.53;;;4.40;;
70715;SDS011;59053;50.832;12.882;2022-07-01T12:45:15;7.57;;;4.05;;
70715;SDS011;59053;50.832;12.882;2022-07-01T12:55:23;6.47;;;3.85;;
70715;SDS011;59053;50.832;12.882;2022-07-01T12:57:49;6.77;;;3.90;;
70715;SDS011;59053;50.832;12.882;2022-07-01T13:00:15;8.35;;;4.65;;
70715;SDS011;59053;50.832;12.882;2022-07-01T13:02:42;8.48;;;4.00;;
70715;SDS011;59053;50.832;12.882;2022-07-01T13:05:07;8.43;;;4.70;;
70715;SDS011;59053;50.832;12.882;2022-07-01T13:07:33;7.33;;;4.33;;
70715;SDS011;59053;50.832;12.882;2022-07-01T13:09:58;7.53;;;4.28;;
70715;SDS011;59053;50.832;12.882;2022-07-01T13:12:24;7.93;;;4.77;;
70715;SDS011;59053;50.832;12.882;2022-07-01T13:14:53;8.38;;;5.03;;
70715;SDS011;59053;50.832;12.882;2022-07-01T13:17:19;7.87;;;4.27;;
70715;SDS011;59053;50.832;12.882;2022-07-01T13:19:46;8.90;;;4.60;;
70715;SDS011;59053;50.832;12.882;2022-07-01T13:22:19;8.88;;;4.80;;
70715;SDS011;59053;50.832;12.882;2022-07-01T13:24:45;9.43;;;4.67;;
70715;SDS011;59053;50.832;12.882;2022-07-01T13:27:10;7.88;;;4.35;;
70715;SDS011;59053;50.832;12.882;2022-07-01T13:29:35;9.20;;;4.90;;
70715;SDS011;59053;50.832;12.882;2022-07-01T13:32:01;10.07;;;5.33;;
70715;SDS011;59053;50.832;12.882;2022-07-01T13:34:26;8.33;;;4.33;;
70715;SDS011;59053;50.832;12.882;2022-07-01T13:36:52;8.90;;;4.53;;
70715;SDS011;59053;50.832;12.882;2022-07-01T13:39:17;9.20;;;4.67;;
70715;SDS011;59053;50.832;12.882;2022-07-01T13:41:43;9.40;;;5.30;;
70715;SDS011;59053;50.832;12.882;2022-07-01T13:44:08;10.10;;;5.60;;
70715;SDS011;59053;50.832;12.882;2022-07-01T13:46:34;8.32;;;4.55;;
70715;SDS011;59053;50.832;12.882;2022-07-01T13:49:00;10.53;;;5.30;;
70715;SDS011;59053;50.832;12.882;2022-07-01T13:51:27;9.70;;;5.10;;
70715;SDS011;59053;50.832;12.882;2022-07-01T13:53:52;10.25;;;5.07;;
70715;SDS011;59053;50.832;12.882;2022-07-01T13:56:17;11.43;;;5.43;;
70715;SDS011;59053;50.832;12.882;2022-07-01T13:58:43;9.53;;;5.40;;
70715;SDS011;59053;50.832;12.882;2022-07-01T14:01:08;8.53;;;4.50;;
70715;SDS011;59053;50.832;12.882;2022-07-01T14:03:34;12.77;;;6.47;;
70715;SDS011;59053;50.832;12.882;2022-07-01T14:08:51;12.47;;;5.90;;
70715;SDS011;59053;50.832;12.882;2022-07-01T14:11:19;11.50;;;6.38;;
70715;SDS011;59053;50.832;12.882;2022-07-01T14:13:47;12.57;;;6.00;;
70715;SDS011;59053;50.832;12.882;2022-07-01T14:16:15;11.75;;;6.05;;
70715;SDS011;59053;50.832;12.882;2022-07-01T14:18:45;14.37;;;6.60;;
70715;SDS011;59053;50.832;12.882;2022-07-01T14:21:29;12.43;;;6.22;;
70715;SDS011;59053;50.832;12.882;2022-07-01T14:24:15;12.83;;;6.20;;
70715;SDS011;59053;50.832;12.882;2022-07-01T14:26:41;12.70;;;6.28;;
70715;SDS011;59053;50.832;12.882;2022-07-01T14:29:06;13.70;;;6.47;;
70715;SDS011;59053;50.832;12.882;2022-07-01T14:31:32;11.20;;;5.82;;
70715;SDS011;59053;50.832;12.882;2022-07-01T14:33:57;12.47;;;6.30;;
70715;SDS011;59053;50.832;12.882;2022-07-01T14:36:23;11.07;;;5.68;;
70715;SDS011;59053;50.832;12.882;2022-07-01T14:38:48;12.27;;;6.10;;
70715;SDS011;59053;50.832;12.882;2022-07-01T14:41:14;11.13;;;5.90;;
70715;SDS011;59053;50.832;12.882;2022-07-01T14:43:39;12.60;;;6.38;;
70715;SDS011;59053;50.832;12.882;2022-07-01T14:46:07;11.75;;;5.85;;
70715;SDS011;59053;50.832;12.882;2022-07-01T14:48:36;11.10;;;5.60;;
70715;SDS011;59053;50.832;12.882;2022-07-01T14:51:03;14.52;;;6.60;;
70715;SDS011;59053;50.832;12.882;2022-07-01T14:53:29;13.82;;;5.90;;
70715;SDS011;59053;50.832;12.882;2022-07-01T14:55:55;13.57;;;6.47;;
70715;SDS011;59053;50.832;12.882;2022-07-01T14:58:20;10.33;;;5.67;;
70715;SDS011;59053;50.832;12.882;2022-07-01T15:00:46;10.73;;;5.30;;
70715;SDS011;59053;50.832;12.882;2022-07-01T15:03:16;9.10;;;4.77;;
70715;SDS011;59053;50.832;12.882;2022-07-01T15:05:41;8.98;;;4.22;;
70715;SDS011;59053;50.832;12.882;2022-07-01T15:08:17;8.32;;;4.30;;
70715;SDS011;59053;50.832;12.882;2022-07-01T15:10:43;7.53;;;4.00;;
70715;SDS011;59053;50.832;12.882;2022-07-01T15:13:11;7.55;;;4.30;;
70715;SDS011;59053;50.832;12.882;2022-07-01T15:15:37;9.70;;;3.70;;
70715;SDS011;59053;50.832;12.882;2022-07-01T15:18:03;9.98;;;4.50;;
70715;SDS011;59053;50.832;12.882;2022-07-01T15:20:28;10.77;;;4.03;;
70715;SDS011;59053;50.832;12.882;2022-07-01T15:22:54;10.43;;;4.75;;
70715;SDS011;59053;50.832;12.882;2022-07-01T15:25:20;12.90;;;4.60;;
70715;SDS011;59053;50.832;12.882;2022-07-01T15:27:45;8.07;;;4.20;;
70715;SDS011;59053;50.832;12.882;2022-07-01T15:30:11;7.67;;;4.10;;
70715;SDS011;59053;50.832;12.882;2022-07-01T15:32:36;8.40;;;3.80;;
70715;SDS011;59053;50.832;12.882;2022-07-01T15:35:02;7.07;;;3.70;;
70715;SDS011;59053;50.832;12.882;2022-07-01T15:37:29;7.40;;;3.75;;
70715;SDS011;59053;50.832;12.882;2022-07-01T15:39:55;9.77;;;4.20;;
70715;SDS011;59053;50.832;12.882;2022-07-01T15:42:22;9.00;;;4.27;;
70715;SDS011;59053;50.832;12.882;2022-07-01T15:44:48;8.38;;;4.22;;
70715;SDS011;59053;50.832;12.882;2022-07-01T15:47:13;10.17;;;4.10;;
70715;SDS011;59053;50.832;12.882;2022-07-01T15:50:00;10.27;;;4.10;;